createdAt,value
2023-03-27T00:01:27.646Z,81.23
2023-03-27T00:03:55.749Z,81.43
2023-03-27T00:06:25.087Z,81.47
2023-03-27T00:08:52.392Z,81.34
2023-03-27T00:11:21.205Z,81.59
2023-03-27T00:13:51.309Z,81.76
2023-03-27T00:16:21.767Z,81.71
2023-03-27T00:18:48.794Z,82.00
2023-03-27T00:21:15.954Z,82.00
2023-03-27T00:23:42.907Z,82.08
2023-03-27T00:26:10.120Z,81.98
2023-03-27T00:28:37.142Z,82.26
2023-03-27T00:31:04.256Z,82.26
2023-03-27T00:33:31.146Z,82.18
2023-03-27T00:35:58.080Z,82.60
2023-03-27T00:38:24.838Z,82.45
2023-03-27T00:40:54.825Z,82.70
2023-03-27T00:43:28.175Z,82.76
2023-03-27T00:46:01.733Z,82.76
2023-03-27T00:48:31.270Z,82.77
2023-03-27T00:50:59.242Z,82.55
2023-03-27T00:53:28.890Z,82.67
2023-03-27T00:56:01.378Z,82.63
2023-03-27T00:58:42.696Z,82.56
2023-03-27T01:01:13.140Z,82.78
2023-03-27T01:03:42.597Z,82.63
2023-03-27T01:06:14.029Z,82.74
2023-03-27T01:08:43.301Z,82.82
2023-03-27T01:11:30.903Z,82.72
2023-03-27T01:14:25.438Z,82.98
2023-03-27T01:17:07.637Z,83.25
2023-03-27T01:20:14.821Z,83.31
2023-03-27T01:23:09.389Z,83.68
2023-03-27T01:26:06.054Z,83.73
2023-03-27T01:29:12.810Z,84.06
2023-03-27T01:32:07.570Z,83.84
2023-03-27T01:34:42.811Z,84.06
2023-03-27T01:37:18.497Z,84.31
2023-03-27T01:39:55.795Z,84.68
2023-03-27T01:42:26.028Z,84.51
2023-03-27T01:45:21.296Z,84.37
2023-03-27T01:48:06.210Z,84.52
2023-03-27T01:50:37.737Z,84.54
2023-03-27T01:53:30.712Z,84.89
2023-03-27T01:56:04.560Z,84.81
2023-03-27T01:58:48.146Z,84.62
2023-03-27T02:01:24.748Z,84.79
2023-03-27T02:03:58.139Z,84.94
2023-03-27T02:06:33.659Z,85.09
2023-03-27T02:09:08.688Z,84.82
2023-03-27T02:11:41.491Z,84.94
2023-03-27T02:14:17.241Z,84.90
2023-03-27T02:16:47.897Z,85.10
2023-03-27T02:19:23.478Z,84.84
2023-03-27T02:21:50.329Z,84.95
2023-03-27T02:24:18.876Z,85.10
2023-03-27T02:26:50.487Z,84.83
2023-03-27T02:29:28.084Z,84.80
2023-03-27T02:32:25.406Z,84.96
2023-03-27T02:35:10.337Z,85.28
2023-03-27T02:38:08.385Z,85.31
2023-03-27T02:40:55.011Z,84.69
2023-03-27T02:43:34.681Z,85.27
2023-03-27T02:46:31.680Z,85.41
2023-03-27T02:49:04.920Z,85.21
2023-03-27T02:51:37.842Z,85.16
2023-03-27T02:54:40.584Z,85.15
2023-03-27T02:57:14.447Z,85.14
2023-03-27T02:59:50.955Z,85.14
2023-03-27T03:02:25.672Z,84.86
2023-03-27T03:04:59.195Z,85.00
2023-03-27T03:07:29.081Z,85.03
2023-03-27T03:09:55.682Z,85.11
2023-03-27T03:12:23.340Z,85.10
2023-03-27T03:14:50.287Z,85.20
2023-03-27T03:17:17.497Z,85.14
2023-03-27T03:19:44.189Z,85.12
2023-03-27T03:22:11.669Z,85.08
2023-03-27T03:24:42.384Z,84.94
2023-03-27T03:27:09.892Z,85.13
2023-03-27T03:29:37.660Z,84.76
2023-03-27T03:32:06.440Z,84.87
2023-03-27T03:34:36.865Z,84.90
2023-03-27T03:37:03.773Z,84.87
2023-03-27T03:39:30.982Z,84.89
2023-03-27T03:41:57.727Z,84.87
2023-03-27T03:44:24.587Z,85.13
2023-03-27T03:46:51.322Z,84.81
2023-03-27T03:49:18.025Z,84.93
2023-03-27T03:51:44.807Z,85.25
2023-03-27T03:54:12.169Z,85.05
2023-03-27T03:56:41.761Z,85.19
2023-03-27T03:59:10.126Z,85.34
2023-03-27T04:01:36.917Z,85.24
2023-03-27T04:04:04.464Z,85.32
2023-03-27T04:06:32.693Z,85.07
2023-03-27T04:08:59.520Z,84.87
2023-03-27T04:11:26.381Z,84.87
2023-03-27T04:13:53.148Z,85.20
2023-03-27T04:16:20.170Z,85.41
2023-03-27T04:18:50.762Z,84.84
2023-03-27T04:21:17.900Z,84.93
2023-03-27T04:23:48.770Z,84.64
2023-03-27T04:26:16.400Z,85.16
2023-03-27T04:28:43.500Z,85.00
2023-03-27T04:31:11.073Z,85.01
2023-03-27T04:33:40.194Z,85.08
2023-03-27T04:36:08.941Z,84.88
2023-03-27T04:38:40.948Z,85.03
2023-03-27T04:41:08.217Z,85.03
2023-03-27T04:43:37.013Z,85.26
2023-03-27T04:46:08.152Z,85.17
2023-03-27T04:48:39.084Z,85.22
2023-03-27T04:51:07.297Z,84.73
2023-03-27T04:53:36.564Z,85.02
2023-03-27T04:56:05.596Z,85.27
2023-03-27T04:58:33.402Z,85.30
2023-03-27T05:01:02.584Z,85.52
2023-03-27T05:03:29.526Z,85.70
2023-03-27T05:05:56.550Z,85.16
2023-03-27T05:08:23.265Z,85.60
2023-03-27T05:10:50.060Z,85.42
2023-03-27T05:13:16.802Z,85.69
2023-03-27T05:15:43.816Z,85.70
2023-03-27T05:18:10.866Z,85.85
2023-03-27T05:20:37.762Z,85.83
2023-03-27T05:23:04.620Z,85.82
2023-03-27T05:25:33.048Z,85.79
2023-03-27T05:28:00.762Z,85.72
2023-03-27T05:30:28.323Z,85.59
2023-03-27T05:32:58.430Z,85.93
2023-03-27T05:35:28.700Z,85.93
2023-03-27T05:37:57.398Z,86.01
2023-03-27T05:40:26.854Z,85.88
2023-03-27T05:42:55.502Z,85.83
2023-03-27T05:45:23.508Z,86.11
2023-03-27T05:47:56.227Z,85.70
2023-03-27T05:50:25.796Z,86.03
2023-03-27T05:53:01.600Z,86.06
2023-03-27T05:55:28.835Z,86.19
2023-03-27T05:57:55.638Z,86.16
2023-03-27T06:00:26.251Z,85.92
2023-03-27T06:02:58.341Z,86.23
2023-03-27T06:05:27.822Z,85.74
2023-03-27T06:07:54.621Z,85.65
2023-03-27T06:10:22.141Z,86.26
2023-03-27T06:12:49.463Z,86.24
2023-03-27T06:15:17.138Z,86.36
2023-03-27T06:17:47.699Z,86.15
2023-03-27T06:20:15.693Z,86.00
2023-03-27T06:22:49.087Z,86.28
2023-03-27T06:25:16.851Z,86.10
2023-03-27T06:27:45.763Z,86.01
2023-03-27T06:30:17.574Z,86.01
2023-03-27T06:32:52.598Z,86.24
2023-03-27T06:35:21.220Z,86.20
2023-03-27T06:37:51.344Z,85.97
2023-03-27T06:40:24.396Z,86.41
2023-03-27T06:43:02.873Z,86.35
2023-03-27T06:45:33.527Z,86.10
2023-03-27T06:48:17.947Z,86.06
2023-03-27T06:50:49.831Z,86.12
2023-03-27T06:55:48.240Z,86.49
2023-03-27T06:58:15.300Z,86.53
2023-03-27T07:00:43.655Z,86.18
2023-03-27T07:03:12.111Z,86.45
2023-03-27T07:05:41.083Z,86.61
2023-03-27T07:08:22.527Z,87.02
2023-03-27T07:11:07.518Z,86.68
2023-03-27T07:13:38.977Z,86.83
2023-03-27T07:16:06.470Z,86.87
2023-03-27T07:18:33.424Z,86.99
2023-03-27T07:21:00.878Z,86.84
2023-03-27T07:23:27.811Z,87.11
2023-03-27T07:26:01.935Z,87.38
2023-03-27T07:28:28.918Z,87.12
2023-03-27T07:30:56.284Z,87.02
2023-03-27T07:33:24.110Z,87.27
2023-03-27T07:35:51.177Z,87.28
2023-03-27T07:38:18.734Z,87.28
2023-03-27T07:40:46.867Z,87.36
2023-03-27T07:43:15.838Z,87.38
2023-03-27T07:45:42.649Z,87.46
2023-03-27T07:48:15.028Z,87.17
2023-03-27T07:50:43.350Z,87.41
2023-03-27T07:53:33.285Z,87.17
2023-03-27T07:56:03.813Z,87.68
2023-03-27T07:58:31.168Z,87.21
2023-03-27T08:01:02.874Z,87.20
2023-03-27T08:03:31.060Z,86.92
2023-03-27T08:06:00.305Z,86.99
2023-03-27T08:08:28.427Z,86.72
2023-03-27T08:10:55.524Z,86.93
2023-03-27T08:13:22.590Z,87.37
2023-03-27T08:15:49.706Z,87.07
2023-03-27T08:18:16.894Z,87.48
2023-03-27T08:20:43.784Z,86.91
2023-03-27T08:23:10.860Z,86.96
2023-03-27T08:25:37.635Z,87.16
2023-03-27T08:28:04.423Z,87.38
2023-03-27T08:30:31.254Z,87.24
2023-03-27T08:33:00.318Z,87.35
2023-03-27T08:35:27.347Z,87.46
2023-03-27T08:37:54.109Z,87.57
2023-03-27T08:40:29.714Z,87.51
2023-03-27T08:43:03.436Z,87.79
2023-03-27T08:45:38.971Z,88.01
2023-03-27T08:48:14.914Z,88.14
2023-03-27T08:50:47.315Z,88.04
2023-03-27T08:53:31.115Z,88.11
2023-03-27T08:55:58.476Z,88.33
2023-03-27T08:58:25.494Z,88.18
2023-03-27T09:01:26.669Z,88.26
2023-03-27T09:04:17.742Z,88.37
2023-03-27T09:06:54.854Z,88.40
2023-03-27T09:09:35.339Z,88.25
2023-03-27T09:12:31.216Z,88.46
2023-03-27T09:15:08.276Z,88.84
2023-03-27T09:17:46.893Z,88.68
2023-03-27T09:20:18.105Z,88.53
2023-03-27T09:22:58.233Z,87.93
2023-03-27T09:25:46.846Z,88.49
2023-03-27T09:28:23.929Z,88.43
2023-03-27T09:30:51.267Z,88.82
2023-03-27T09:33:18.149Z,88.43
2023-03-27T09:35:45.901Z,88.55
2023-03-27T09:38:18.798Z,88.58
2023-03-27T09:40:56.405Z,88.17
2023-03-27T09:43:28.907Z,88.43
2023-03-27T09:45:58.314Z,88.28
2023-03-27T09:48:39.835Z,88.24
2023-03-27T09:51:40.916Z,87.73
2023-03-27T09:54:09.647Z,88.26
2023-03-27T09:56:43.867Z,88.08
2023-03-27T09:59:21.011Z,87.96
2023-03-27T10:01:50.646Z,88.24
2023-03-27T10:04:21.963Z,87.94
2023-03-27T10:07:05.760Z,87.75
2023-03-27T10:09:38.047Z,87.93
2023-03-27T10:12:08.186Z,87.41
2023-03-27T10:14:48.473Z,86.51
2023-03-27T10:17:24.771Z,85.91
2023-03-27T10:19:58.276Z,85.85
2023-03-27T10:22:32.020Z,85.69
2023-03-27T10:25:01.836Z,85.05
2023-03-27T10:27:31.374Z,85.35
2023-03-27T10:29:58.126Z,85.23
2023-03-27T10:32:46.299Z,85.60
2023-03-27T10:35:27.471Z,85.44
2023-03-27T10:37:55.628Z,85.44
2023-03-27T10:40:27.076Z,85.75
2023-03-27T10:42:59.760Z,86.42
2023-03-27T10:45:26.708Z,86.36
2023-03-27T10:48:00.534Z,86.90
2023-03-27T10:50:58.634Z,87.26
2023-03-27T10:54:01.972Z,86.69
2023-03-27T10:56:54.935Z,87.18
2023-03-27T10:59:41.021Z,87.21
2023-03-27T11:02:17.649Z,87.87
2023-03-27T11:04:51.963Z,87.37
2023-03-27T11:07:27.628Z,86.81
2023-03-27T11:10:21.827Z,87.67
2023-03-27T11:13:01.870Z,87.57
2023-03-27T11:15:42.444Z,87.00
2023-03-27T11:18:18.821Z,86.74
2023-03-27T11:20:57.001Z,86.39
2023-03-27T11:23:44.847Z,86.03
2023-03-27T11:26:16.050Z,85.99
2023-03-27T11:28:49.704Z,85.62
2023-03-27T11:31:38.491Z,85.67
2023-03-27T11:34:28.869Z,86.06
2023-03-27T11:37:24.627Z,86.52
2023-03-27T11:40:04.625Z,86.03
2023-03-27T11:42:37.189Z,85.40
2023-03-27T11:45:07.683Z,85.14
2023-03-27T11:47:41.181Z,84.91
2023-03-27T11:50:30.858Z,84.92
2023-03-27T11:53:23.707Z,84.98
2023-03-27T11:56:04.314Z,85.05
2023-03-27T11:58:45.603Z,84.17
2023-03-27T12:01:28.131Z,83.93
2023-03-27T12:04:17.465Z,83.64
2023-03-27T12:07:04.274Z,84.10
2023-03-27T12:09:48.660Z,84.28
2023-03-27T12:12:42.517Z,84.57
2023-03-27T12:15:29.370Z,84.61
2023-03-27T12:18:00.584Z,84.18
2023-03-27T12:20:52.909Z,84.38
2023-03-27T12:23:49.165Z,84.74
2023-03-27T12:26:49.532Z,84.34
2023-03-27T12:29:31.255Z,83.91
2023-03-27T12:32:13.154Z,82.93
2023-03-27T12:34:55.058Z,82.79
2023-03-27T12:37:28.112Z,82.42
2023-03-27T12:39:59.435Z,82.73
2023-03-27T12:43:03.189Z,83.21
2023-03-27T12:45:29.888Z,83.46
2023-03-27T12:48:10.750Z,82.87
2023-03-27T12:50:55.668Z,83.25
2023-03-27T12:53:25.647Z,82.85
2023-03-27T12:56:27.378Z,82.54
2023-03-27T12:58:55.664Z,82.77
2023-03-27T13:01:51.611Z,82.63
2023-03-27T13:04:48.164Z,82.73
2023-03-27T13:07:38.353Z,82.78
2023-03-27T13:10:48.145Z,82.85
2023-03-27T13:13:20.636Z,82.52
2023-03-27T13:16:06.819Z,82.77
2023-03-27T13:19:12.700Z,82.58
2023-03-27T13:21:59.853Z,82.70
2023-03-27T13:24:40.713Z,82.81
2023-03-27T13:27:24.766Z,82.79
2023-03-27T13:29:53.461Z,82.63
2023-03-27T13:32:31.630Z,82.85
2023-03-27T13:35:28.497Z,82.67
2023-03-27T13:38:00.851Z,82.51
2023-03-27T13:40:27.835Z,82.54
2023-03-27T13:43:22.136Z,82.91
2023-03-27T13:45:55.623Z,82.76
2023-03-27T13:48:39.791Z,82.58
2023-03-27T13:51:41.961Z,82.37
2023-03-27T13:54:22.603Z,82.71
2023-03-27T13:57:03.592Z,82.76
2023-03-27T13:59:47.272Z,82.81
2023-03-27T14:02:42.184Z,82.20
2023-03-27T14:05:37.059Z,82.27
2023-03-27T14:08:21.063Z,83.21
2023-03-27T14:11:09.226Z,83.26
2023-03-27T14:13:55.926Z,82.69
2023-03-27T14:16:36.902Z,83.14
2023-03-27T14:19:17.532Z,82.36
2023-03-27T14:22:08.204Z,82.87
2023-03-27T14:24:44.377Z,82.29
2023-03-27T14:27:17.389Z,82.55
2023-03-27T14:29:45.428Z,82.21
2023-03-27T14:32:15.788Z,82.48
2023-03-27T14:37:45.295Z,81.74
2023-03-27T14:40:42.510Z,81.01
2023-03-27T14:43:12.447Z,80.15
2023-03-27T14:45:41.169Z,79.81
2023-03-27T14:48:22.834Z,80.01
2023-03-27T14:50:54.507Z,79.26
2023-03-27T14:53:27.983Z,79.59
2023-03-27T14:55:56.047Z,79.02
2023-03-27T14:58:25.874Z,78.99
2023-03-27T15:01:00.150Z,78.84
2023-03-27T15:03:30.959Z,78.54
2023-03-27T15:06:27.116Z,78.12
2023-03-27T15:08:58.994Z,78.07
2023-03-27T15:11:33.536Z,78.28
2023-03-27T15:14:03.124Z,78.03
2023-03-27T15:16:36.172Z,78.27
2023-03-27T15:19:14.477Z,78.20
2023-03-27T15:22:02.058Z,78.00
2023-03-27T15:24:51.253Z,78.10
2023-03-27T15:27:40.860Z,77.67
2023-03-27T15:30:18.013Z,77.50
2023-03-27T15:32:50.821Z,76.87
2023-03-27T15:35:23.779Z,76.80
2023-03-27T15:37:51.174Z,77.05
2023-03-27T15:40:26.799Z,76.11
2023-03-27T15:43:02.354Z,76.36
2023-03-27T15:45:39.972Z,76.26
2023-03-27T15:48:25.207Z,76.41
2023-03-27T15:51:01.704Z,75.86
2023-03-27T15:53:40.888Z,76.10
2023-03-27T15:56:23.310Z,75.87
2023-03-27T15:59:06.789Z,75.53
2023-03-27T16:01:39.474Z,74.75
2023-03-27T16:04:14.772Z,75.03
2023-03-27T16:06:45.877Z,75.02
2023-03-27T16:09:28.753Z,75.25
2023-03-27T16:11:57.782Z,74.56
2023-03-27T16:14:33.007Z,73.98
2023-03-27T16:17:09.884Z,74.26
2023-03-27T16:19:48.309Z,73.84
2023-03-27T16:22:23.623Z,73.34
2023-03-27T16:24:51.478Z,73.83
2023-03-27T16:27:24.049Z,73.76
2023-03-27T16:29:51.827Z,73.28
2023-03-27T16:32:20.649Z,73.64
2023-03-27T16:34:47.908Z,73.52
2023-03-27T16:37:15.769Z,73.42
2023-03-27T16:39:43.200Z,72.98
2023-03-27T16:42:17.267Z,72.51
2023-03-27T16:44:45.614Z,72.33
2023-03-27T16:47:14.343Z,72.50
2023-03-27T16:49:41.723Z,72.07
2023-03-27T16:52:08.465Z,71.91
2023-03-27T16:54:35.322Z,71.63
2023-03-27T16:57:02.644Z,71.90
2023-03-27T16:59:29.390Z,71.34
2023-03-27T17:01:56.291Z,71.44
2023-03-27T17:04:23.308Z,71.10
2023-03-27T17:06:50.856Z,71.22
2023-03-27T17:09:18.290Z,71.72
2023-03-27T17:11:45.047Z,72.14
2023-03-27T17:14:12.203Z,71.03
2023-03-27T17:16:39.963Z,70.23
2023-03-27T17:19:07.174Z,70.72
2023-03-27T17:21:34.034Z,70.90
2023-03-27T17:24:01.110Z,70.57
2023-03-27T17:26:31.172Z,70.05
2023-03-27T17:28:59.134Z,70.13
2023-03-27T17:31:27.728Z,69.95
2023-03-27T17:33:55.674Z,69.97
2023-03-27T17:36:36.773Z,70.61
2023-03-27T17:39:08.300Z,70.78
2023-03-27T17:41:35.084Z,70.63
2023-03-27T17:44:01.878Z,70.96
2023-03-27T17:46:28.714Z,70.55
2023-03-27T17:48:57.258Z,70.17
2023-03-27T17:51:24.080Z,70.73
2023-03-27T17:53:50.886Z,70.46
2023-03-27T17:56:17.735Z,69.90
2023-03-27T17:58:50.122Z,70.21
2023-03-27T18:01:19.578Z,70.29
2023-03-27T18:03:46.850Z,70.05
2023-03-27T18:06:17.465Z,69.24
2023-03-27T18:08:46.258Z,69.28
2023-03-27T18:11:15.703Z,69.50
2023-03-27T18:13:42.856Z,69.77
2023-03-27T18:16:13.609Z,69.41
2023-03-27T18:18:40.532Z,69.08
2023-03-27T18:21:07.715Z,69.38
2023-03-27T18:23:46.169Z,69.17
2023-03-27T18:26:14.606Z,69.06
2023-03-27T18:28:41.654Z,68.96
2023-03-27T18:31:11.415Z,68.72
2023-03-27T18:33:38.689Z,69.14
2023-03-27T18:36:11.548Z,68.53
2023-03-27T18:38:40.375Z,68.62
2023-03-27T18:41:07.891Z,69.04
2023-03-27T18:43:34.744Z,68.85
2023-03-27T18:46:07.158Z,68.96
2023-03-27T18:48:35.467Z,68.64
2023-03-27T18:51:04.825Z,69.06
2023-03-27T18:53:32.162Z,68.40
2023-03-27T18:56:00.031Z,69.22
2023-03-27T18:58:29.070Z,68.87
2023-03-27T19:00:57.307Z,68.91
2023-03-27T19:03:26.784Z,69.05
2023-03-27T19:05:53.999Z,68.93
2023-03-27T19:08:22.022Z,69.14
2023-03-27T19:10:49.464Z,68.25
2023-03-27T19:13:16.349Z,68.58
2023-03-27T19:15:44.089Z,68.12
2023-03-27T19:18:11.217Z,68.01
2023-03-27T19:20:38.220Z,68.23
2023-03-27T19:23:05.150Z,68.76
2023-03-27T19:25:35.412Z,68.17
2023-03-27T19:28:03.929Z,68.33
2023-03-27T19:30:32.510Z,68.88
2023-03-27T19:32:59.499Z,68.36
2023-03-27T19:35:26.682Z,68.64
2023-03-27T19:37:54.788Z,68.84
2023-03-27T19:40:22.230Z,68.83
2023-03-27T19:42:48.958Z,68.46
2023-03-27T19:45:16.398Z,68.75
2023-03-27T19:47:43.449Z,68.77
2023-03-27T19:50:11.192Z,68.38
2023-03-27T19:52:38.039Z,68.52
2023-03-27T19:55:05.611Z,68.83
2023-03-27T19:57:32.586Z,68.70
2023-03-27T19:59:59.342Z,68.46
2023-03-27T20:02:27.891Z,68.46
2023-03-27T20:04:54.841Z,68.88
2023-03-27T20:07:21.816Z,68.95
2023-03-27T20:09:48.597Z,68.78
2023-03-27T20:12:15.945Z,68.86
2023-03-27T20:14:46.535Z,68.94
2023-03-27T20:17:27.972Z,68.96
2023-03-27T20:19:55.782Z,68.85
2023-03-27T20:22:22.654Z,69.00
2023-03-27T20:24:49.604Z,68.87
2023-03-27T20:27:19.892Z,68.93
2023-03-27T20:29:48.083Z,68.81
2023-03-27T20:32:15.121Z,68.87
2023-03-27T20:34:41.854Z,69.00
2023-03-27T20:37:14.666Z,69.05
2023-03-27T20:39:47.439Z,68.65
2023-03-27T20:42:16.722Z,68.73
2023-03-27T20:44:44.716Z,68.87
2023-03-27T20:47:12.492Z,68.55
2023-03-27T20:49:43.079Z,68.75
2023-03-27T20:52:19.693Z,68.47
2023-03-27T20:54:48.141Z,68.61
2023-03-27T20:57:15.259Z,68.59
2023-03-27T20:59:41.952Z,68.89
2023-03-27T21:02:16.621Z,68.69
2023-03-27T21:04:43.384Z,68.69
2023-03-27T21:07:10.332Z,68.91
2023-03-27T21:09:38.595Z,69.04
2023-03-27T21:12:05.939Z,68.91
2023-03-27T21:14:32.949Z,69.03
2023-03-27T21:16:59.987Z,69.19
2023-03-27T21:19:26.942Z,69.07
2023-03-27T21:21:53.887Z,69.15
2023-03-27T21:24:20.890Z,69.34
2023-03-27T21:26:47.842Z,69.52
2023-03-27T21:29:15.571Z,69.56
2023-03-27T21:31:43.356Z,69.60
2023-03-27T21:34:11.263Z,69.61
2023-03-27T21:36:41.820Z,69.72
2023-03-27T21:39:09.266Z,69.85
2023-03-27T22:00:35.633Z,69.94
2023-03-27T22:03:03.175Z,69.92
2023-03-27T22:05:30.051Z,69.84
2023-03-27T22:07:57.741Z,69.96
2023-03-27T22:10:24.482Z,69.92
2023-03-27T22:12:51.184Z,69.83
2023-03-27T22:15:18.181Z,69.89
2023-03-27T22:17:45.193Z,69.99
2023-03-27T22:20:12.114Z,69.86
2023-03-27T22:22:38.932Z,69.95
2023-03-27T22:25:06.327Z,69.78
2023-03-27T22:27:33.161Z,69.93
2023-03-27T22:30:00.223Z,69.87
2023-03-27T22:32:27.018Z,69.62
2023-03-27T22:34:53.745Z,69.71
2023-03-27T22:37:21.063Z,69.74
2023-03-27T22:39:47.807Z,70.00
2023-03-27T22:42:14.673Z,69.85
2023-03-27T22:44:41.694Z,69.84
2023-03-27T22:47:08.621Z,69.96
2023-03-27T22:49:36.456Z,69.86
2023-03-27T22:52:04.707Z,69.67
2023-03-27T22:54:31.517Z,69.70
2023-03-27T22:56:59.117Z,69.57
2023-03-27T22:59:26.559Z,69.65
2023-03-27T23:01:53.356Z,69.79
2023-03-27T23:04:20.109Z,69.69
2023-03-27T23:06:46.977Z,69.76
2023-03-27T23:09:13.797Z,69.98
2023-03-27T23:11:41.369Z,70.15
2023-03-27T23:14:08.110Z,69.94
2023-03-27T23:16:34.807Z,69.78
2023-03-27T23:19:01.563Z,69.99
2023-03-27T23:21:28.393Z,69.85
2023-03-27T23:23:55.601Z,70.10
2023-03-27T23:26:27.654Z,70.12
2023-03-27T23:28:54.424Z,70.07
2023-03-27T23:31:21.269Z,70.41
2023-03-27T23:33:50.725Z,70.56
2023-03-27T23:36:21.028Z,70.53
2023-03-27T23:38:47.935Z,70.40
2023-03-27T23:41:16.103Z,70.62
2023-03-27T23:43:43.625Z,70.61
2023-03-27T23:46:12.762Z,70.57
2023-03-27T23:48:42.041Z,70.80
2023-03-27T23:51:10.721Z,70.81
2023-03-27T23:53:38.264Z,71.13
2023-03-27T23:56:05.841Z,71.23
2023-03-27T23:58:33.241Z,70.85
